Terminal Aerodrome Forecast
Issued by NWS

Home | Current Version | Previous Version | Text Only | Print | Product List | Glossary On
Versions: 1 2 3 4 5 6 7 8 9 10 11 12 13 14 15
000
FTUS41 KGYX 020527
TAFRKD
TAF
KRKD 020527Z 0206/0306 27005KT 2SM -SN BR OVC015
      TEMPO 0206/0208 1SM -SN
     FM020800 28005KT 5SM -SN BR BKN025
     FM021100 28007KT P6SM BKN040
     FM021600 30012G22KT P6SM FEW050
      AMD LTD TO CLD VIS AND WIND=

USA.gov is the U.S. government's official web portal to all federal, state and local government web resources and services.